Time;durP1;ratioP1;P1;durP2;ratioP2;P2;SDS_P1;SDS_P2;PMS_P1;PMS_P2;Temp;Humidity;BMP_temperature;BMP_pressure;BME280_temperature;BME280_humidity;BME280_pressure;Samples;Min_cycle;Max_cycle;Signal;HPM_P1;HPM_P2
2021/12/28 00:00:44;;;;;;;16.20;2.40;;;;;;;;;;5047327;28;20060;-83
2021/12/28 00:03:09;;;;;;;24.20;3.58;;;;;;;;;;5064725;28;20607;-82
2021/12/28 00:05:34;;;;;;;18.88;2.55;;;;;;;;;;5050482;28;20474;-83
2021/12/28 00:07:59;;;;;;;18.30;2.17;;;;;;;;;;5052381;28;20021;-82
2021/12/28 00:10:25;;;;;;;16.25;2.45;;;;;;;;;;5051000;28;20057;-83
2021/12/28 00:12:50;;;;;;;15.13;2.45;;;;;;;;;;5052069;28;20100;-82
2021/12/28 00:18:02;;;;;;;25.13;3.22;;;;;;;;;;5053546;28;20033;-82
2021/12/28 00:20:30;;;;;;;30.30;3.42;;;;;;;;;;5055169;28;20106;-83
2021/12/28 00:22:56;;;;;;;14.27;2.42;;;;;;;;;;5058798;28;20082;-83
2021/12/28 00:25:21;;;;;;;20.38;2.67;;;;;;;;;;5066372;28;20029;-83
2021/12/28 00:27:46;;;;;;;21.90;2.50;;;;;;;;;;5088067;28;20028;-82
2021/12/28 00:30:11;;;;;;;21.23;3.65;;;;;;;;;;5065230;28;20036;-82
2021/12/28 00:32:37;;;;;;;19.17;2.90;;;;;;;;;;5069244;28;20028;-82
2021/12/28 00:35:03;;;;;;;19.95;2.38;;;;;;;;;;5088051;28;20028;-82
2021/12/28 00:37:28;;;;;;;22.70;3.38;;;;;;;;;;5088942;28;20025;-82
2021/12/28 00:39:53;;;;;;;18.92;2.35;;;;;;;;;;5074662;28;20074;-82
2021/12/28 00:42:18;;;;;;;25.60;2.40;;;;;;;;;;5059063;28;20021;-83
2021/12/28 00:44:44;;;;;;;27.95;3.17;;;;;;;;;;5055701;28;20028;-82
2021/12/28 00:47:09;;;;;;;20.52;2.78;;;;;;;;;;5054296;28;20107;-83
2021/12/28 00:49:34;;;;;;;20.20;2.72;;;;;;;;;;5069529;28;20484;-82
2021/12/28 00:51:59;;;;;;;20.17;2.58;;;;;;;;;;5075712;28;20016;-82
2021/12/28 00:54:24;;;;;;;25.63;2.95;;;;;;;;;;5074394;28;20016;-82
2021/12/28 00:56:50;;;;;;;21.75;2.70;;;;;;;;;;5074193;28;20023;-83
2021/12/28 00:59:15;;;;;;;21.40;2.50;;;;;;;;;;5054634;28;20036;-82
2021/12/28 01:01:41;;;;;;;28.27;2.35;;;;;;;;;;5066983;28;20391;-82
2021/12/28 01:04:06;;;;;;;17.10;2.85;;;;;;;;;;5074351;28;20028;-83
2021/12/28 01:06:31;;;;;;;24.05;2.97;;;;;;;;;;5074067;28;20024;-82
2021/12/28 01:08:56;;;;;;;16.23;2.28;;;;;;;;;;5074059;28;20020;-82
2021/12/28 01:11:21;;;;;;;24.83;2.65;;;;;;;;;;5075408;28;20016;-83
2021/12/28 01:13:47;;;;;;;21.52;2.33;;;;;;;;;;5074181;28;20021;-82
2021/12/28 01:16:13;;;;;;;20.00;2.55;;;;;;;;;;5063510;28;20017;-82
2021/12/28 01:18:39;;;;;;;14.05;2.17;;;;;;;;;;5063497;28;20027;-82
2021/12/28 01:21:04;;;;;;;24.77;2.50;;;;;;;;;;5073564;28;20488;-82
2021/12/28 01:23:30;;;;;;;24.88;2.83;;;;;;;;;;5058112;28;20017;-82
2021/12/28 01:25:55;;;;;;;17.15;2.65;;;;;;;;;;5087065;28;20059;-82
2021/12/28 01:28:20;;;;;;;24.50;2.47;;;;;;;;;;5086946;28;20067;-82
2021/12/28 01:30:46;;;;;;;15.57;2.13;;;;;;;;;;5059929;28;20013;-82
2021/12/28 01:33:11;;;;;;;27.00;3.03;;;;;;;;;;5074946;28;20073;-82
2021/12/28 01:35:37;;;;;;;17.13;2.25;;;;;;;;;;5074767;28;20047;-82
2021/12/28 01:38:02;;;;;;;22.00;2.22;;;;;;;;;;5074680;28;20035;-82
2021/12/28 01:40:30;;;;;;;15.48;1.95;;;;;;;;;;5073557;28;20260;-82
2021/12/28 01:42:58;;;;;;;17.88;2.70;;;;;;;;;;5071754;28;20032;-82
2021/12/28 01:45:42;;;;;;;15.65;1.63;;;;;;;;;;5055804;28;20029;-83
2021/12/28 01:48:08;;;;;;;31.05;2.92;;;;;;;;;;5087111;28;20366;-83
2021/12/28 01:50:33;;;;;;;19.67;2.38;;;;;;;;;;5054690;28;20032;-82
2021/12/28 01:52:58;;;;;;;12.25;1.50;;;;;;;;;;5054959;28;20036;-82
2021/12/28 01:55:24;;;;;;;9.40;1.48;;;;;;;;;;5053198;28;20025;-82
2021/12/28 01:57:49;;;;;;;11.07;1.75;;;;;;;;;;5086635;28;20040;-82
2021/12/28 02:00:15;;;;;;;13.55;2.13;;;;;;;;;;5053933;28;20020;-83
2021/12/28 02:02:40;;;;;;;9.90;1.23;;;;;;;;;;5086729;28;20417;-82
2021/12/28 02:05:06;;;;;;;12.65;1.58;;;;;;;;;;5086712;28;20044;-83
2021/12/28 02:07:31;;;;;;;14.45;1.77;;;;;;;;;;5086177;28;20460;-82
2021/12/28 02:09:56;;;;;;;19.23;1.90;;;;;;;;;;5086351;28;20021;-82
2021/12/28 02:12:22;;;;;;;16.65;2.38;;;;;;;;;;5054898;28;20459;-82
2021/12/28 02:14:47;;;;;;;16.45;1.77;;;;;;;;;;5062393;28;20429;-82
2021/12/28 02:17:14;;;;;;;11.65;1.48;;;;;;;;;;5072820;28;20059;-82
2021/12/28 02:19:39;;;;;;;9.55;1.40;;;;;;;;;;5064583;28;20107;-82
2021/12/28 02:22:04;;;;;;;16.88;1.90;;;;;;;;;;5073969;28;20435;-82
2021/12/28 02:24:29;;;;;;;14.73;1.50;;;;;;;;;;5072471;28;20055;-82
2021/12/28 02:26:54;;;;;;;15.25;1.85;;;;;;;;;;5072431;28;20491;-82
2021/12/28 02:29:20;;;;;;;6.93;1.33;;;;;;;;;;5071644;28;20021;-82
2021/12/28 02:31:46;;;;;;;5.45;1.15;;;;;;;;;;5072697;28;20021;-83
2021/12/28 02:34:11;;;;;;;12.00;1.85;;;;;;;;;;5072591;28;20033;-82
2021/12/28 02:36:37;;;;;;;7.70;1.40;;;;;;;;;;5073728;28;20032;-82
2021/12/28 02:39:02;;;;;;;12.90;1.92;;;;;;;;;;5072335;28;20024;-82
2021/12/28 02:41:27;;;;;;;21.38;1.65;;;;;;;;;;5073170;28;20021;-83
2021/12/28 02:43:58;;;;;;;11.18;1.30;;;;;;;;;;5071548;28;20028;-82
2021/12/28 02:46:23;;;;;;;10.38;1.33;;;;;;;;;;5072270;28;20062;-83
2021/12/28 02:48:48;;;;;;;9.50;1.30;;;;;;;;;;5070979;28;20017;-82
2021/12/28 02:51:15;;;;;;;6.47;1.50;;;;;;;;;;5069115;28;20078;-82
2021/12/28 02:53:40;;;;;;;8.20;1.73;;;;;;;;;;5073263;28;20027;-82
2021/12/28 02:56:06;;;;;;;11.68;1.40;;;;;;;;;;5073639;28;20103;-82
2021/12/28 02:58:36;;;;;;;16.13;1.05;;;;;;;;;;5072587;28;20021;-82
2021/12/28 03:01:08;;;;;;;6.63;1.10;;;;;;;;;;5072259;28;20535;-82
2021/12/28 03:03:34;;;;;;;8.20;1.38;;;;;;;;;;5073336;28;20048;-83
2021/12/28 03:06:00;;;;;;;9.68;1.35;;;;;;;;;;5054973;28;20425;-82
2021/12/28 03:08:26;;;;;;;17.40;1.20;;;;;;;;;;5048498;28;20064;-83
2021/12/28 03:10:51;;;;;;;3.90;0.90;;;;;;;;;;5048764;28;20020;-83
2021/12/28 03:13:21;;;;;;;19.95;2.00;;;;;;;;;;5071913;28;20017;-82
2021/12/28 03:15:47;;;;;;;14.43;1.58;;;;;;;;;;5051670;28;20484;-82
2021/12/28 03:18:12;;;;;;;8.95;1.30;;;;;;;;;;5067531;28;20153;-83
2021/12/28 03:20:38;;;;;;;8.75;1.52;;;;;;;;;;5071971;28;20086;-82
2021/12/28 03:23:03;;;;;;;8.90;1.00;;;;;;;;;;5071098;28;20027;-82
2021/12/28 03:25:29;;;;;;;11.50;1.50;;;;;;;;;;5071576;28;20365;-82
2021/12/28 03:27:54;;;;;;;6.20;1.05;;;;;;;;;;5071748;28;20028;-82
2021/12/28 03:30:19;;;;;;;10.25;1.38;;;;;;;;;;5072946;28;20013;-82
2021/12/28 03:32:45;;;;;;;7.43;1.55;;;;;;;;;;5073008;28;20017;-82
2021/12/28 03:35:12;;;;;;;15.52;1.55;;;;;;;;;;5073068;28;20074;-82
2021/12/28 03:37:37;;;;;;;8.80;1.15;;;;;;;;;;5069905;28;20020;-82
2021/12/28 03:40:04;;;;;;;10.98;1.85;;;;;;;;;;5071674;28;20031;-82
2021/12/28 03:42:29;;;;;;;9.13;1.40;;;;;;;;;;5071655;28;20036;-82
2021/12/28 03:44:54;;;;;;;12.32;1.85;;;;;;;;;;5072889;28;20020;-82
2021/12/28 03:47:19;;;;;;;10.70;1.58;;;;;;;;;;5072899;28;20024;-82
2021/12/28 03:49:45;;;;;;;12.07;1.63;;;;;;;;;;5072930;28;20414;-82
2021/12/28 03:52:10;;;;;;;8.77;1.30;;;;;;;;;;5070609;28;20047;-82
2021/12/28 03:54:35;;;;;;;12.02;1.05;;;;;;;;;;5075638;28;20460;-82
2021/12/28 03:57:01;;;;;;;3.47;0.80;;;;;;;;;;5076792;28;20016;-82
2021/12/28 03:59:27;;;;;;;7.68;1.25;;;;;;;;;;5075292;28;20024;-82
2021/12/28 04:01:52;;;;;;;11.40;1.20;;;;;;;;;;5073741;28;20031;-82
2021/12/28 04:04:17;;;;;;;10.95;1.20;;;;;;;;;;5074200;28;20042;-83
2021/12/28 04:06:42;;;;;;;7.88;1.33;;;;;;;;;;5073123;28;20024;-83
2021/12/28 04:09:11;;;;;;;13.55;1.55;;;;;;;;;;5073609;28;20074;-83
2021/12/28 04:11:36;;;;;;;7.32;1.40;;;;;;;;;;5075005;28;20048;-83
2021/12/28 04:14:03;;;;;;;8.93;1.17;;;;;;;;;;5073557;28;20494;-82
2021/12/28 04:16:29;;;;;;;16.90;1.55;;;;;;;;;;5074636;28;20519;-82
2021/12/28 04:18:54;;;;;;;9.93;1.35;;;;;;;;;;5068512;28;20040;-82
2021/12/28 04:21:19;;;;;;;9.80;1.08;;;;;;;;;;5087441;28;20029;-82
2021/12/28 04:23:46;;;;;;;10.30;1.17;;;;;;;;;;5087270;28;20028;-82
2021/12/28 04:26:11;;;;;;;13.07;1.25;;;;;;;;;;5053038;28;20069;-82
2021/12/28 04:28:36;;;;;;;11.57;1.52;;;;;;;;;;5087135;28;20052;-83
2021/12/28 04:31:02;;;;;;;7.45;1.00;;;;;;;;;;5091499;28;20013;-82
2021/12/28 04:33:27;;;;;;;11.27;1.38;;;;;;;;;;5061918;28;20357;-82
2021/12/28 04:35:52;;;;;;;15.38;1.42;;;;;;;;;;5056072;28;20364;-82
2021/12/28 04:38:17;;;;;;;7.18;1.17;;;;;;;;;;5054793;28;20029;-82
2021/12/28 04:40:43;;;;;;;8.02;1.35;;;;;;;;;;5054597;28;20028;-82
2021/12/28 04:43:08;;;;;;;9.85;1.13;;;;;;;;;;5054754;28;20033;-82
2021/12/28 04:45:36;;;;;;;7.93;1.25;;;;;;;;;;5087701;28;20029;-82
2021/12/28 04:48:01;;;;;;;10.40;1.13;;;;;;;;;;5056170;28;20516;-82
2021/12/28 04:50:26;;;;;;;14.43;1.20;;;;;;;;;;5074603;28;20021;-82
2021/12/28 04:52:53;;;;;;;12.98;1.13;;;;;;;;;;5075726;28;20012;-82
2021/12/28 04:55:18;;;;;;;9.13;0.93;;;;;;;;;;5074593;28;20020;-82
2021/12/28 04:57:44;;;;;;;5.13;1.23;;;;;;;;;;5065128;28;20432;-82
2021/12/28 05:00:14;;;;;;;11.23;1.17;;;;;;;;;;5087713;28;20074;-82
2021/12/28 05:02:39;;;;;;;8.07;1.08;;;;;;;;;;5087315;28;20175;-82
2021/12/28 05:05:04;;;;;;;12.18;1.35;;;;;;;;;;5054901;28;20060;-82
2021/12/28 05:07:30;;;;;;;7.30;1.35;;;;;;;;;;5054342;28;20055;-82
2021/12/28 05:09:57;;;;;;;3.35;0.90;;;;;;;;;;5055554;28;20061;-82
2021/12/28 05:12:23;;;;;;;12.80;1.00;;;;;;;;;;5055277;28;20021;-82
2021/12/28 05:14:49;;;;;;;7.82;1.05;;;;;;;;;;5053869;28;20029;-82
2021/12/28 05:17:14;;;;;;;5.28;0.75;;;;;;;;;;5064512;28;20039;-82
2021/12/28 05:19:39;;;;;;;4.50;0.63;;;;;;;;;;5073948;28;20028;-82
2021/12/28 05:22:05;;;;;;;8.98;1.15;;;;;;;;;;5075155;28;20103;-82
2021/12/28 05:24:30;;;;;;;7.50;0.80;;;;;;;;;;5073024;28;20034;-82
2021/12/28 05:26:55;;;;;;;3.33;0.77;;;;;;;;;;5074589;28;20032;-82
2021/12/28 05:29:20;;;;;;;8.13;0.70;;;;;;;;;;5073637;28;20013;-82
2021/12/28 05:31:46;;;;;;;5.20;0.80;;;;;;;;;;5071697;28;20044;-82
2021/12/28 05:34:11;;;;;;;5.43;0.68;;;;;;;;;;5075589;28;20055;-82
2021/12/28 05:36:36;;;;;;;4.35;0.98;;;;;;;;;;5073472;28;20457;-82
2021/12/28 05:39:03;;;;;;;5.72;0.77;;;;;;;;;;5054329;28;20385;-82
2021/12/28 05:41:28;;;;;;;3.67;0.60;;;;;;;;;;5054724;28;20373;-82
2021/12/28 05:43:53;;;;;;;4.90;0.63;;;;;;;;;;5053559;28;20024;-82
2021/12/28 05:46:18;;;;;;;8.45;0.85;;;;;;;;;;5060386;28;20021;-82
2021/12/28 05:48:44;;;;;;;3.60;0.75;;;;;;;;;;5073239;28;20011;-82
2021/12/28 05:51:09;;;;;;;3.33;0.68;;;;;;;;;;5073491;28;20012;-82
2021/12/28 05:53:34;;;;;;;8.40;0.70;;;;;;;;;;5072500;28;20030;-82
2021/12/28 05:56:00;;;;;;;6.28;0.70;;;;;;;;;;5073393;28;20020;-83
2021/12/28 05:58:25;;;;;;;3.72;0.90;;;;;;;;;;5073173;28;20082;-82
2021/12/28 06:00:50;;;;;;;3.70;0.52;;;;;;;;;;5072431;28;20027;-82
2021/12/28 06:03:15;;;;;;;13.45;0.90;;;;;;;;;;5073241;28;20048;-82
2021/12/28 06:05:41;;;;;;;8.57;0.60;;;;;;;;;;5074242;28;20029;-82
2021/12/28 06:08:06;;;;;;;2.03;0.40;;;;;;;;;;5073013;28;20017;-83
2021/12/28 06:10:31;;;;;;;4.10;0.68;;;;;;;;;;5072969;28;20483;-82
2021/12/28 06:12:56;;;;;;;1.65;0.60;;;;;;;;;;5072723;28;20047;-82
2021/12/28 06:15:21;;;;;;;5.40;0.73;;;;;;;;;;5071946;28;20023;-82
2021/12/28 06:17:47;;;;;;;4.70;0.68;;;;;;;;;;5053618;28;20477;-82
2021/12/28 06:20:12;;;;;;;3.40;0.70;;;;;;;;;;5052736;28;20044;-82
2021/12/28 06:22:37;;;;;;;3.78;0.80;;;;;;;;;;5085859;28;20032;-82
2021/12/28 06:25:03;;;;;;;3.85;0.68;;;;;;;;;;5086505;28;20020;-82
2021/12/28 06:27:28;;;;;;;7.32;0.88;;;;;;;;;;5085689;28;20029;-82
2021/12/28 06:29:53;;;;;;;4.90;0.70;;;;;;;;;;5052440;28;20021;-82
2021/12/28 06:32:18;;;;;;;2.97;0.45;;;;;;;;;;5052361;28;20017;-82
2021/12/28 06:34:44;;;;;;;3.78;0.68;;;;;;;;;;5052494;28;20111;-82
2021/12/28 06:37:09;;;;;;;5.55;0.85;;;;;;;;;;5067777;28;20104;-82
2021/12/28 06:39:34;;;;;;;6.40;0.70;;;;;;;;;;5072437;28;20020;-82
2021/12/28 06:41:59;;;;;;;4.88;0.70;;;;;;;;;;5072482;28;20361;-82
2021/12/28 06:44:25;;;;;;;5.53;0.65;;;;;;;;;;5072247;28;20074;-82
2021/12/28 06:46:50;;;;;;;2.55;0.70;;;;;;;;;;5072084;28;20124;-81
2021/12/28 06:49:16;;;;;;;7.68;0.70;;;;;;;;;;5072220;28;20535;-81
2021/12/28 06:51:41;;;;;;;2.55;1.02;;;;;;;;;;5070943;28;20052;-82
2021/12/28 06:54:06;;;;;;;8.82;0.80;;;;;;;;;;5072198;28;20020;-82
2021/12/28 06:56:31;;;;;;;2.17;0.60;;;;;;;;;;5072153;28;20028;-82
2021/12/28 06:58:57;;;;;;;1.55;0.63;;;;;;;;;;5072008;28;20109;-82
2021/12/28 07:01:23;;;;;;;4.15;0.70;;;;;;;;;;5071958;28;20557;-82
2021/12/28 07:03:48;;;;;;;2.47;0.60;;;;;;;;;;5073267;28;20021;-82
2021/12/28 07:06:16;;;;;;;1.95;0.68;;;;;;;;;;5071086;28;20043;-83
2021/12/28 07:08:41;;;;;;;1.88;0.80;;;;;;;;;;5071451;28;20017;-82
2021/12/28 07:11:06;;;;;;;5.38;1.00;;;;;;;;;;5071890;28;20107;-82
2021/12/28 07:13:31;;;;;;;6.93;0.90;;;;;;;;;;5072002;28;20107;-82
2021/12/28 07:15:57;;;;;;;3.05;0.77;;;;;;;;;;5071025;28;20077;-82
2021/12/28 07:18:22;;;;;;;2.50;0.85;;;;;;;;;;5071937;28;20012;-82
2021/12/28 07:20:48;;;;;;;1.20;0.52;;;;;;;;;;5071718;28;20020;-82
2021/12/28 07:23:13;;;;;;;4.30;1.10;;;;;;;;;;5072036;28;20028;-82
2021/12/28 07:25:39;;;;;;;2.85;1.00;;;;;;;;;;5072771;28;20036;-82
2021/12/28 07:28:04;;;;;;;2.22;1.00;;;;;;;;;;5072852;28;20019;-82
2021/12/28 07:30:29;;;;;;;3.28;1.00;;;;;;;;;;5070808;28;20024;-82
2021/12/28 07:32:54;;;;;;;2.75;1.08;;;;;;;;;;5071874;28;20021;-82
2021/12/28 07:35:20;;;;;;;2.55;0.93;;;;;;;;;;5064560;28;20100;-82
2021/12/28 07:47:05;;;;;;;3.17;1.02;;;;;;;;;;5034257;28;20108;-92
2021/12/28 07:49:30;;;;;;;3.03;1.27;;;;;;;;;;5032748;28;20037;-92
2021/12/28 07:51:55;;;;;;;4.63;0.93;;;;;;;;;;5036335;28;20155;-92
2021/12/28 07:54:20;;;;;;;2.10;1.10;;;;;;;;;;5051975;28;20093;-92
2021/12/28 07:56:46;;;;;;;3.15;1.05;;;;;;;;;;5051964;28;20056;-92
2021/12/28 07:59:11;;;;;;;1.75;1.10;;;;;;;;;;5054624;28;20103;-92
2021/12/28 08:01:36;;;;;;;4.68;1.17;;;;;;;;;;5072135;28;20024;-92
2021/12/28 08:04:02;;;;;;;3.72;1.40;;;;;;;;;;5073080;28;20048;-92
2021/12/28 08:06:27;;;;;;;2.95;1.48;;;;;;;;;;5072465;28;20111;-92
2021/12/28 08:08:52;;;;;;;2.63;1.00;;;;;;;;;;5072151;28;20425;-93
2021/12/28 08:11:18;;;;;;;3.85;1.10;;;;;;;;;;5068773;28;20021;-92
2021/12/28 08:13:43;;;;;;;5.80;1.42;;;;;;;;;;5054750;28;20021;-93
2021/12/28 08:16:08;;;;;;;2.00;1.20;;;;;;;;;;5059634;28;20119;-93
2021/12/28 08:18:33;;;;;;;4.55;1.50;;;;;;;;;;5072456;28;20115;-93
2021/12/28 08:20:59;;;;;;;4.25;1.42;;;;;;;;;;5071073;28;20044;-92
2021/12/28 08:23:24;;;;;;;2.45;1.50;;;;;;;;;;5052456;28;20388;-92
2021/12/28 08:25:50;;;;;;;4.43;1.10;;;;;;;;;;5052327;28;20032;-93
2021/12/28 08:28:15;;;;;;;3.25;1.05;;;;;;;;;;5052406;28;20468;-92
2021/12/28 08:30:41;;;;;;;4.82;1.23;;;;;;;;;;5052264;28;20032;-92
2021/12/28 08:33:07;;;;;;;3.72;1.50;;;;;;;;;;5053539;28;20020;-92
2021/12/28 08:35:33;;;;;;;5.25;2.53;;;;;;;;;;5053326;28;20017;-93
2021/12/28 08:37:58;;;;;;;3.55;2.20;;;;;;;;;;5053148;28;20028;-93
2021/12/28 08:40:24;;;;;;;4.07;1.30;;;;;;;;;;5056125;28;20061;-93
2021/12/28 08:42:49;;;;;;;3.42;1.65;;;;;;;;;;5055532;28;20399;-93
2021/12/28 08:45:14;;;;;;;3.38;1.60;;;;;;;;;;5055389;28;20017;-93
2021/12/28 08:47:40;;;;;;;2.78;1.83;;;;;;;;;;5055527;28;20082;-93
2021/12/28 08:50:08;;;;;;;4.75;1.60;;;;;;;;;;5055434;28;20111;-93
2021/12/28 08:52:34;;;;;;;7.53;1.63;;;;;;;;;;5055628;28;20028;-93
2021/12/28 08:54:59;;;;;;;3.88;1.77;;;;;;;;;;5056551;28;20377;-92
2021/12/28 08:57:24;;;;;;;3.25;1.50;;;;;;;;;;5057491;28;20024;-89
2021/12/28 08:59:49;;;;;;;3.30;1.42;;;;;;;;;;5054885;28;20028;-92
2021/12/28 09:02:15;;;;;;;4.18;1.77;;;;;;;;;;5054230;28;20051;-91
2021/12/28 09:04:43;;;;;;;3.40;1.20;;;;;;;;;;5055193;28;20029;-90
2021/12/28 09:07:12;;;;;;;3.33;1.60;;;;;;;;;;5055190;28;20063;-90
2021/12/28 09:09:37;;;;;;;3.13;1.40;;;;;;;;;;5056402;28;20040;-91
2021/12/28 09:12:03;;;;;;;2.58;1.30;;;;;;;;;;5088309;28;20052;-91
2021/12/28 09:14:28;;;;;;;3.53;1.30;;;;;;;;;;5058534;28;20104;-91
2021/12/28 09:16:53;;;;;;;2.17;1.27;;;;;;;;;;5055859;28;20453;-92
2021/12/28 09:19:18;;;;;;;3.58;1.55;;;;;;;;;;5056268;28;20460;-93
2021/12/28 09:21:44;;;;;;;4.63;1.40;;;;;;;;;;5089909;28;20029;-91
2021/12/28 09:24:09;;;;;;;4.32;1.33;;;;;;;;;;5056235;28;20091;-92
2021/12/28 09:26:34;;;;;;;3.13;1.05;;;;;;;;;;5054553;28;20427;-92
2021/12/28 09:29:00;;;;;;;5.47;1.10;;;;;;;;;;5054994;28;20112;-91
2021/12/28 09:31:28;;;;;;;2.97;1.10;;;;;;;;;;5056488;28;20472;-91
2021/12/28 09:33:53;;;;;;;2.95;1.10;;;;;;;;;;5060010;28;20017;-91
2021/12/28 09:36:18;;;;;;;4.90;1.20;;;;;;;;;;5058902;28;20082;-92
2021/12/28 09:38:44;;;;;;;2.42;1.30;;;;;;;;;;5055780;28;20505;-91
2021/12/28 09:41:10;;;;;;;1.67;1.20;;;;;;;;;;5093328;28;20112;-89
2021/12/28 09:43:36;;;;;;;1.55;1.13;;;;;;;;;;5050358;28;20057;-90
2021/12/28 09:46:01;;;;;;;1.77;1.10;;;;;;;;;;5060629;28;20029;-90
2021/12/28 09:48:26;;;;;;;2.38;1.30;;;;;;;;;;5047488;28;20075;-90
2021/12/28 09:50:51;;;;;;;2.05;1.38;;;;;;;;;;5054993;28;20483;-88
2021/12/28 09:53:16;;;;;;;3.30;1.58;;;;;;;;;;5058656;28;20385;-89
2021/12/28 09:55:42;;;;;;;2.75;1.30;;;;;;;;;;5087067;28;20024;-89
2021/12/28 09:58:08;;;;;;;4.55;1.20;;;;;;;;;;5053118;28;20031;-89
2021/12/28 10:00:33;;;;;;;5.65;1.20;;;;;;;;;;5052653;28;20115;-89
2021/12/28 10:02:58;;;;;;;2.72;1.30;;;;;;;;;;5084659;28;20461;-90
2021/12/28 10:05:25;;;;;;;2.22;1.20;;;;;;;;;;5077773;28;20030;-89
2021/12/28 10:07:56;;;;;;;1.85;1.30;;;;;;;;;;5052862;28;20024;-90
2021/12/28 10:10:22;;;;;;;3.95;1.58;;;;;;;;;;5077930;28;20022;-90
2021/12/28 10:12:52;;;;;;;3.45;1.00;;;;;;;;;;5046199;28;20592;-90
2021/12/28 10:15:22;;;;;;;2.53;1.40;;;;;;;;;;5055331;28;20380;-90
2021/12/28 10:17:51;;;;;;;2.22;1.60;;;;;;;;;;5055596;28;20025;-90
2021/12/28 10:20:23;;;;;;;3.30;1.60;;;;;;;;;;5057215;28;20021;-91
2021/12/28 10:22:54;;;;;;;5.32;1.83;;;;;;;;;;5040301;28;20040;-90
2021/12/28 10:25:22;;;;;;;4.53;2.35;;;;;;;;;;5052561;28;20033;-90
2021/12/28 10:27:48;;;;;;;6.43;2.08;;;;;;;;;;5052612;28;20738;-90
2021/12/28 10:30:15;;;;;;;6.10;2.50;;;;;;;;;;5058458;28;20024;-90
2021/12/28 10:32:42;;;;;;;4.28;2.17;;;;;;;;;;5051475;28;20110;-88
2021/12/28 10:35:09;;;;;;;2.42;1.83;;;;;;;;;;5053414;28;20021;-88
2021/12/28 10:37:37;;;;;;;5.28;2.03;;;;;;;;;;5056576;28;20036;-88
2021/12/28 10:40:05;;;;;;;7.13;2.55;;;;;;;;;;5048914;28;20031;-89
2021/12/28 10:42:50;;;;;;;7.13;2.45;;;;;;;;;;5052328;28;20373;-87
2021/12/28 10:45:28;;;;;;;3.58;2.05;;;;;;;;;;5053732;28;20040;-88
2021/12/28 10:47:54;;;;;;;3.92;2.00;;;;;;;;;;5045457;28;20021;-87
2021/12/28 10:50:27;;;;;;;6.82;2.50;;;;;;;;;;5052552;28;20094;-88
2021/12/28 10:53:04;;;;;;;3.17;1.80;;;;;;;;;;5052503;28;20017;-88
2021/12/28 10:55:30;;;;;;;6.53;1.80;;;;;;;;;;5046160;28;20055;-88
2021/12/28 10:57:57;;;;;;;1.67;0.93;;;;;;;;;;5056206;28;20035;-89
2021/12/28 11:00:28;;;;;;;0.70;0.70;;;;;;;;;;5052438;28;20427;-88
2021/12/28 11:03:13;;;;;;;2.13;0.60;;;;;;;;;;5081509;28;20075;-87
2021/12/28 11:05:38;;;;;;;1.60;0.60;;;;;;;;;;5054903;28;20118;-85
2021/12/28 11:08:07;;;;;;;17.90;1.70;;;;;;;;;;5060059;28;20009;-86
2021/12/28 11:10:32;;;;;;;9.23;1.60;;;;;;;;;;5085971;28;20021;-86
2021/12/28 11:12:58;;;;;;;19.85;2.10;;;;;;;;;;5085756;28;20021;-86
2021/12/28 11:15:23;;;;;;;20.80;2.00;;;;;;;;;;5052690;28;20361;-86
2021/12/28 11:17:48;;;;;;;23.02;2.25;;;;;;;;;;5056537;28;20369;-86
2021/12/28 11:20:14;;;;;;;20.17;2.53;;;;;;;;;;5055087;28;20020;-87
2021/12/28 11:22:39;;;;;;;16.02;2.55;;;;;;;;;;5052530;28;20394;-89
2021/12/28 11:25:18;;;;;;;14.15;2.83;;;;;;;;;;5051571;28;20017;-86
2021/12/28 11:27:43;;;;;;;23.48;2.92;;;;;;;;;;5062261;28;20020;-88
2021/12/28 11:30:14;;;;;;;26.83;2.90;;;;;;;;;;5063524;28;20021;-89
2021/12/28 11:32:40;;;;;;;22.60;3.33;;;;;;;;;;5085177;28;20017;-88
2021/12/28 11:35:06;;;;;;;21.00;2.45;;;;;;;;;;5053158;28;20024;-88
2021/12/28 11:37:32;;;;;;;18.27;2.22;;;;;;;;;;5052131;28;20029;-88
2021/12/28 11:39:59;;;;;;;33.00;3.88;;;;;;;;;;5078606;28;20098;-87
2021/12/28 11:42:25;;;;;;;27.27;3.28;;;;;;;;;;5066248;28;21235;-87
2021/12/28 11:44:51;;;;;;;26.45;3.28;;;;;;;;;;5053195;28;20056;-88
2021/12/28 11:47:17;;;;;;;25.10;3.30;;;;;;;;;;5043792;28;20033;-89
2021/12/28 11:49:44;;;;;;;26.58;3.10;;;;;;;;;;5048715;28;20025;-88
2021/12/28 11:52:11;;;;;;;29.98;3.58;;;;;;;;;;5052714;28;20017;-88
2021/12/28 11:54:38;;;;;;;33.40;3.80;;;;;;;;;;5051873;28;20019;-89
2021/12/28 11:57:27;;;;;;;34.92;4.35;;;;;;;;;;5085682;28;20407;-89
2021/12/28 11:59:54;;;;;;;34.33;2.90;;;;;;;;;;5051734;28;20056;-89
2021/12/28 12:02:19;;;;;;;27.38;3.58;;;;;;;;;;5052317;28;20033;-89
2021/12/28 12:04:49;;;;;;;30.85;3.85;;;;;;;;;;5053808;28;20029;-88
2021/12/28 12:07:14;;;;;;;36.63;3.88;;;;;;;;;;5063263;28;20031;-88
2021/12/28 12:09:48;;;;;;;34.35;4.32;;;;;;;;;;5060533;28;20363;-88
2021/12/28 12:12:18;;;;;;;30.10;3.63;;;;;;;;;;5085795;28;20063;-88
2021/12/28 12:14:50;;;;;;;29.13;3.42;;;;;;;;;;5062812;28;20057;-87
2021/12/28 12:17:30;;;;;;;30.57;4.23;;;;;;;;;;5089643;28;20048;-88
2021/12/28 12:19:58;;;;;;;28.52;2.85;;;;;;;;;;5089464;28;20745;-88
2021/12/28 12:22:30;;;;;;;40.22;4.60;;;;;;;;;;5082731;28;20120;-89
2021/12/28 12:24:56;;;;;;;36.47;4.60;;;;;;;;;;5049591;28;20021;-89
2021/12/28 12:27:36;;;;;;;34.00;4.25;;;;;;;;;;5054975;28;20025;-88
2021/12/28 12:30:02;;;;;;;27.88;4.20;;;;;;;;;;5056188;28;20469;-89
2021/12/28 12:32:46;;;;;;;37.28;4.55;;;;;;;;;;5055818;28;20040;-88
2021/12/28 12:35:30;;;;;;;32.55;3.92;;;;;;;;;;5053699;28;20096;-89
2021/12/28 12:37:56;;;;;;;33.60;4.60;;;;;;;;;;5055928;28;20047;-89
2021/12/28 12:40:21;;;;;;;34.60;4.20;;;;;;;;;;5055416;28;20013;-89
2021/12/28 12:43:05;;;;;;;29.75;3.78;;;;;;;;;;5060636;28;20108;-88
2021/12/28 12:45:49;;;;;;;22.98;3.83;;;;;;;;;;5055143;28;20048;-89
2021/12/28 12:48:33;;;;;;;23.80;3.60;;;;;;;;;;5054607;28;20064;-88
2021/12/28 12:51:17;;;;;;;27.05;3.33;;;;;;;;;;5059405;28;20438;-89
2021/12/28 12:53:47;;;;;;;24.83;3.33;;;;;;;;;;5056662;28;20107;-89
2021/12/28 12:56:18;;;;;;;33.72;4.57;;;;;;;;;;5059524;28;20063;-90
2021/12/28 12:58:47;;;;;;;32.38;3.15;;;;;;;;;;5056501;28;20449;-89
2021/12/28 13:01:21;;;;;;;38.25;4.50;;;;;;;;;;5055249;28;20032;-89
2021/12/28 13:03:47;;;;;;;34.47;4.47;;;;;;;;;;5055354;28;20036;-90
2021/12/28 13:06:12;;;;;;;33.97;4.43;;;;;;;;;;5056530;28;20400;-89
2021/12/28 13:08:38;;;;;;;29.00;4.35;;;;;;;;;;5055501;28;20482;-90
2021/12/28 13:11:03;;;;;;;39.03;4.35;;;;;;;;;;5089020;28;20071;-90
2021/12/28 13:13:32;;;;;;;27.67;3.65;;;;;;;;;;5088945;28;20503;-89
2021/12/28 13:15:57;;;;;;;24.23;3.67;;;;;;;;;;5060489;28;20023;-89
2021/12/28 13:18:22;;;;;;;28.40;4.07;;;;;;;;;;5055984;28;20013;-88
2021/12/28 13:20:49;;;;;;;29.77;4.05;;;;;;;;;;5073023;28;20016;-88
2021/12/28 13:23:14;;;;;;;35.20;3.78;;;;;;;;;;5057922;28;20522;-89
2021/12/28 13:25:42;;;;;;;32.40;4.03;;;;;;;;;;5069428;28;20032;-88
2021/12/28 13:28:08;;;;;;;23.67;3.45;;;;;;;;;;5063662;28;20029;-88
2021/12/28 13:30:37;;;;;;;38.13;4.65;;;;;;;;;;5054868;28;20082;-89
2021/12/28 13:33:05;;;;;;;33.43;3.47;;;;;;;;;;5061997;28;20043;-87
2021/12/28 13:35:36;;;;;;;27.10;3.33;;;;;;;;;;5071216;28;20028;-89
2021/12/28 13:38:06;;;;;;;26.48;2.83;;;;;;;;;;5061605;28;20017;-88
2021/12/28 13:40:35;;;;;;;31.27;2.77;;;;;;;;;;5074048;28;20486;-89
2021/12/28 13:43:00;;;;;;;17.98;2.05;;;;;;;;;;5087523;28;20032;-88
2021/12/28 13:45:36;;;;;;;11.20;1.60;;;;;;;;;;5087892;28;20116;-89
2021/12/28 13:48:22;;;;;;;10.70;1.50;;;;;;;;;;5066496;28;20025;-88
2021/12/28 13:51:07;;;;;;;12.83;1.07;;;;;;;;;;5054168;28;20032;-88
2021/12/28 13:53:34;;;;;;;10.87;1.37;;;;;;;;;;5049529;28;20032;-87
2021/12/28 13:56:10;;;;;;;8.93;1.00;;;;;;;;;;5054400;28;20017;-88
2021/12/28 13:58:37;;;;;;;8.97;0.83;;;;;;;;;;5053649;28;20024;-87
2021/12/28 14:01:13;;;;;;;9.40;0.90;;;;;;;;;;5080897;28;20106;-88
2021/12/28 14:03:38;;;;;;;8.00;1.17;;;;;;;;;;5081853;28;20017;-88
2021/12/28 14:06:05;;;;;;;5.47;0.97;;;;;;;;;;5054701;28;20025;-88
2021/12/28 14:08:31;;;;;;;4.87;0.80;;;;;;;;;;5054834;28;20484;-88
2021/12/28 14:10:57;;;;;;;4.37;0.80;;;;;;;;;;5053426;28;20013;-88
2021/12/28 14:13:23;;;;;;;8.80;1.13;;;;;;;;;;5094824;28;20024;-88
2021/12/28 14:15:54;;;;;;;6.20;0.80;;;;;;;;;;5072142;28;20024;-88
2021/12/28 14:18:34;;;;;;;9.33;1.10;;;;;;;;;;5054784;28;20099;-89
2021/12/28 14:21:09;;;;;;;7.87;1.43;;;;;;;;;;5053554;28;20051;-88
2021/12/28 14:23:34;;;;;;;11.93;1.10;;;;;;;;;;5054364;28;20487;-90
2021/12/28 14:26:19;;;;;;;9.33;1.73;;;;;;;;;;5053179;28;20025;-88
2021/12/28 14:28:53;;;;;;;16.50;1.40;;;;;;;;;;5075402;28;20108;-89
2021/12/28 14:31:21;;;;;;;9.90;1.30;;;;;;;;;;5085601;28;20017;-89
2021/12/28 14:33:51;;;;;;;8.30;1.33;;;;;;;;;;5052353;28;20021;-89
2021/12/28 14:36:17;;;;;;;7.40;1.20;;;;;;;;;;5060807;28;20368;-88
2021/12/28 14:38:42;;;;;;;10.87;1.50;;;;;;;;;;5055727;28;20023;-88
2021/12/28 14:41:24;;;;;;;8.67;1.60;;;;;;;;;;5051273;28;20514;-88
2021/12/28 14:43:52;;;;;;;13.77;2.00;;;;;;;;;;5054171;28;20029;-88
2021/12/28 14:46:27;;;;;;;12.63;1.63;;;;;;;;;;5052920;28;20468;-89